Terminal Aerodrome Forecast
Issued by NWS

Home | Current Version | Previous Version | Text Only | Print | Product List | Glossary On
Versions: 1 2 3 4 5 6 7 8 9 10 11 12 13 14 15
000
FTUS41 KCAR 302344 AAA
TAFPQI
TAF AMD
KPQI 302344Z 3100/3118 17009KT P6SM VCSH OVC080
     FM310100 18007KT P6SM -SHRA OVC050
     FM310300 18006KT 5SM -SHRA BR OVC030
     FM310500 18006KT 5SM BR OVC010
     FM311300 21006KT P6SM BKN035
     FM311700 24010G16KT P6SM BKN060
      AMD LTD TO CLD VIS AND WIND=

USA.gov is the U.S. government's official web portal to all federal, state and local government web resources and services.